KGLW

Details ICAO KGLW
Name GLASGOW MUNI
Region United States
Timezone America/Chicago (UTC-6.0)
Plans Departing 2
Arriving 10
Stats Elevation 715 ft / 218 m (AMSL)
Location 37.031779° -85.953754°
Runways 1
Magnetic Variation 4.487° W
Sunrise 2017-12-14 12:50:49 UTC / 2017-12-14 06:50:49 Local
Sunset 2017-12-14 22:29:12 UTC / 2017-12-14 16:29:12 Local
Advertisement - Login to hide

Runways

ID Width Length Bearing (true) Bearing (mag) Surface Threshold Offset Overrun Length
07 100 ft / 30 m 5,293 ft / 1,613 m 71.33° 75.82° Asphalt 0 ft / 0 m 0 ft / 0 m
25 100 ft / 30 m 5,293 ft / 1,613 m 251.34° 255.83° Asphalt 301 ft / 92 m 0 ft / 0 m

Approach Navaids

Runway Type Ident Frequency Range Bearing (true) Bearing (mag) Slope Elevation
07 Localiser IGLW 108.50 MHz 18 nm / 33 km 71.48° 75.97° - 715 ft / 218 m (AMSL)

Map

Weather


0- 5 10 15 20 25 30 35+ Temperature / ° C

Clouds and Precipitation
Forecast for 2017-12-15 00:00 UTC. Updated 4 minutes ago

Ground ~20,000 ft ~40,000 ft Winds

METAR

KGLW 141915Z AUTO 25003KT 10SM OVC035 04/M05 A2999 RMK AO2 T00361046

TAF

Not found

Frequencies

Recorded 118.52 MHz AWOS 3
Unicom 122.80 MHz CTAF/UNICOM
Warning: Do not use this data for real-world aviation or navigation. No guarantee of current accuracy is given.